Amgu — V3NS9 — position and weather

sailwx.info

Track history (hours):
 
Tides and Currents Weather Stations Pressure Air Temp Water Temp Dewpoint Dewpoint Depression Visibility Wind Speed Wind Dir Waves Ship Positions

Amgu

Last reported at 2018-Feb-16 09:08 UTC. Time now 2018-Feb-24 06:15 UTC.
Position N 41°39' E 141°13'.

Length 100 m; draft 6.6 m.

Type: Cargo ship. MMSI: 312779000.

Date/timePositionNaut miles runAvg speedWind from/ knotsBaromVisibWave heightAir tempDewpointWater temp
2018-Feb-16 09:08N 41°39' E 141°13'111.6
2018-Feb-16 09:00N 41°39' E 141°11'511.0
2018-Feb-16 08:30N 41°37' E 141°04'611.4
2018-Feb-16 08:00N 41°37' E 140°56'612.2
2018-Feb-16 07:30N 41°35' E 140°49'713.2
2018-Feb-16 07:00N 41°31' E 140°42'713.5
2018-Feb-16 06:29N 41°26' E 140°34'814.1
2018-Feb-16 05:56N 41°22' E 140°26'3213.0
2018-Feb-16 03:28N 41°19' E 139°43'613.6
2018-Feb-16 03:01N 41°20' E 139°35'914.0
2018-Feb-16 02:20N 41°22' E 139°23'  
Track history (hours):
 
Tides and Currents Weather Stations Pressure Air Temp Water Temp Dewpoint Dewpoint Depression Visibility Wind Speed Wind Dir Waves Ship Positions

Amgu

Last reported at 2018-Feb-16 09:08 UTC. Time now 2018-Feb-24 06:15 UTC.
Position N 41°39' E 141°13'.

Length 100 m; draft 6.6 m.

Type: Cargo ship. MMSI: 312779000.

Date/timePositionNaut miles runAvg speedWind from/ knotsBaromVisibWave heightAir tempDewpointWater temp
2018-Feb-16 09:08N 41°39' E 141°13'111.6
2018-Feb-16 09:00N 41°39' E 141°11'511.0
2018-Feb-16 08:30N 41°37' E 141°04'611.4
2018-Feb-16 08:00N 41°37' E 140°56'612.2
2018-Feb-16 07:30N 41°35' E 140°49'713.2
2018-Feb-16 07:00N 41°31' E 140°42'713.5
2018-Feb-16 06:29N 41°26' E 140°34'814.1
2018-Feb-16 05:56N 41°22' E 140°26'3213.0
2018-Feb-16 03:28N 41°19' E 139°43'613.6
2018-Feb-16 03:01N 41°20' E 139°35'914.0
2018-Feb-16 02:20N 41°22' E 139°23'  

Dump ship's entire track history